Time;durP1;ratioP1;P1;durP2;ratioP2;P2;SDS_P1;SDS_P2;PMS_P1;PMS_P2;Temp;Humidity;BMP_temperature;BMP_pressure;BME280_temperature;BME280_humidity;BME280_pressure;Samples;Min_cycle;Max_cycle;Signal;HPM_P1;HPM_P2
2022/06/27 00:01:08;;;;;;;1.10;1.00;;;;;;;;;;5077158;28;20449;-89
2022/06/27 00:03:35;;;;;;;0.70;0.70;;;;;;;;;;5077154;28;20940;-89
2022/06/27 00:06:02;;;;;;;1.17;0.87;;;;;;;;;;5078781;28;20449;-86
2022/06/27 00:08:31;;;;;;;1.63;0.80;;;;;;;;;;5076016;28;20442;-88
2022/06/27 00:10:58;;;;;;;1.50;0.77;;;;;;;;;;5076662;28;20445;-87
2022/06/27 00:13:25;;;;;;;1.47;0.80;;;;;;;;;;5076223;28;20441;-90
2022/06/27 00:15:52;;;;;;;2.50;0.87;;;;;;;;;;5076260;28;20485;-87
2022/06/27 00:18:19;;;;;;;0.80;0.73;;;;;;;;;;5075909;28;20453;-87
2022/06/27 00:20:46;;;;;;;8.50;0.80;;;;;;;;;;5075918;28;20456;-86
2022/06/27 00:23:13;;;;;;;1.57;1.20;;;;;;;;;;5074953;28;20828;-89
2022/06/27 00:25:42;;;;;;;1.43;0.80;;;;;;;;;;5076118;28;20450;-87
2022/06/27 00:28:09;;;;;;;2.20;0.80;;;;;;;;;;5073243;28;20503;-89
2022/06/27 00:30:36;;;;;;;0.60;0.50;;;;;;;;;;5073189;28;20458;-89
2022/06/27 00:33:03;;;;;;;1.93;1.03;;;;;;;;;;5073337;28;20460;-88
2022/06/27 00:35:30;;;;;;;1.47;0.90;;;;;;;;;;5076225;28;20500;-89
2022/06/27 00:37:57;;;;;;;1.87;0.80;;;;;;;;;;5071957;28;20460;-88
2022/06/27 00:40:24;;;;;;;3.90;0.73;;;;;;;;;;5076318;28;20941;-88
2022/06/27 00:42:53;;;;;;;1.77;0.57;;;16.60;99.90;;;;;;5076062;28;20449;-88
2022/06/27 00:45:20;;;;;;;3.50;1.17;;;;;;;;;;5072269;28;20492;-90
2022/06/27 00:47:47;;;;;;;3.07;1.10;;;;;;;;;;5072079;28;20523;-88
2022/06/27 00:50:14;;;;;;;0.70;0.70;;;;;;;;;;5073424;28;20508;-91
2022/06/27 00:52:43;;;;;;;1.30;0.80;;;16.50;99.90;;;;;;5070667;28;20826;-90
2022/06/27 00:55:10;;;;;;;1.23;0.77;;;16.60;99.90;;;;;;5075841;28;20512;-89
2022/06/27 00:57:39;;;;;;;2.83;1.30;;;16.60;99.90;;;;;;5076066;28;20457;-90
2022/06/27 01:00:09;;;;;;;2.60;1.10;;;16.70;99.90;;;;;;5075725;28;20456;-89
2022/06/27 01:02:37;;;;;;;3.33;1.13;;;;;;;;;;5073072;28;20442;-90
2022/06/27 01:05:05;;;;;;;2.17;0.73;;;;;;;;;;5076272;28;20437;-92
2022/06/27 01:07:32;;;;;;;1.43;0.60;;;;;;;;;;5076335;28;20434;-91
2022/06/27 01:10:01;;;;;;;2.13;0.73;;;16.60;99.90;;;;;;5072451;28;20460;-91
2022/06/27 01:12:28;;;;;;;0.60;0.60;;;;;;;;;;5072665;28;20438;-91
2022/06/27 01:14:55;;;;;;;2.40;1.10;;;;;;;;;;5076401;28;21022;-92
2022/06/27 01:17:24;;;;;;;1.10;0.87;;;16.60;99.90;;;;;;5073710;28;20921;-91
2022/06/27 01:19:51;;;;;;;2.90;0.80;;;;;;;;;;5073421;28;20446;-91
2022/06/27 01:22:20;;;;;;;1.73;0.90;;;16.60;99.90;;;;;;5076555;28;20438;-91
2022/06/27 01:24:47;;;;;;;1.83;0.73;;;;;;;;;;5076094;28;20802;-91
2022/06/27 01:27:15;;;;;;;2.40;0.80;;;;;;;;;;5076285;28;20430;-89
2022/06/27 01:29:43;;;;;;;1.30;0.77;;;;;;;;;;5076992;28;20530;-93
2022/06/27 01:32:10;;;;;;;1.50;0.93;;;;;;;;;;5076913;28;20445;-92
2022/06/27 01:34:37;;;;;;;1.50;0.70;;;;;;;;;;5072971;28;20464;-91
2022/06/27 01:37:05;;;;;;;1.33;0.77;;;16.60;99.90;;;;;;5076598;28;20473;-92
2022/06/27 01:39:33;;;;;;;0.73;0.73;;;;;;;;;;5072113;28;20438;-92
2022/06/27 01:42:03;;;;;;;2.63;0.97;;;16.60;99.90;;;;;;5076100;28;20434;-92
2022/06/27 01:44:34;;;;;;;1.40;0.90;;;16.60;99.90;;;;;;5073210;28;20461;-93
2022/06/27 01:47:05;;;;;;;1.20;0.90;;;16.60;99.90;;;;;;5072627;28;20457;-91
2022/06/27 01:49:34;;;;;;;1.47;0.90;;;16.50;99.90;;;;;;5076540;28;20477;-90
2022/06/27 01:52:02;;;;;;;1.40;0.73;;;;;;;;;;5073845;28;20482;-93
2022/06/27 01:54:29;;;;;;;1.10;0.60;;;;;;;;;;5075886;28;20454;-91
2022/06/27 01:57:00;;;;;;;1.57;0.90;;;;;;;;;;5074421;28;20457;-91
2022/06/27 01:59:29;;;;;;;1.23;0.90;;;16.50;99.90;;;;;;5082068;28;20430;-90
2022/06/27 02:02:01;;;;;;;2.47;0.90;;;;;;;;;;5073635;28;20449;-91
2022/06/27 02:04:30;;;;;;;2.90;1.20;;;16.50;99.90;;;;;;5076849;28;20434;-92
2022/06/27 02:06:57;;;;;;;1.37;0.90;;;;;;;;;;5073483;28;20437;-92
2022/06/27 02:09:25;;;;;;;1.60;1.00;;;;;;;;;;5073383;28;20461;-91
2022/06/27 02:11:55;;;;;;;1.50;0.70;;;16.50;99.90;;;;;;5076462;28;20456;-92
2022/06/27 02:14:23;;;;;;;1.80;1.00;;;;;;;;;;5075992;28;20831;-92
2022/06/27 02:16:50;;;;;;;1.40;0.80;;;;;;;;;;5078373;28;21002;-94
2022/06/27 02:19:18;;;;;;;1.20;0.80;;;;;;;;;;5077421;28;20454;-94
2022/06/27 02:21:47;;;;;;;2.80;0.90;;;16.40;99.90;;;;;;5069466;28;20457;-92
2022/06/27 02:24:14;;;;;;;2.70;0.60;;;;;;;;;;5075690;28;20859;-93
2022/06/27 02:26:42;;;;;;;1.23;0.93;;;16.30;99.90;;;;;;5076608;28;20450;-93
2022/06/27 02:29:10;;;;;;;1.23;0.97;;;;;;;;;;5073687;28;20461;-92
2022/06/27 02:31:49;;;;;;;3.00;1.27;;;16.30;99.90;;;;;;5079924;28;20446;-92
2022/06/27 02:34:16;;;;;;;2.40;1.60;;;;;;;;;;5080190;28;20446;-93
2022/06/27 02:36:43;;;;;;;1.77;0.93;;;;;;;;;;5083792;28;20469;-92
2022/06/27 02:39:13;;;;;;;2.13;0.90;;;16.30;99.90;;;;;;5080072;28;20454;-91
2022/06/27 02:41:41;;;;;;;2.17;1.20;;;16.40;99.90;;;;;;5086786;28;20442;-92
2022/06/27 02:44:10;;;;;;;2.30;1.40;;;16.20;99.90;;;;;;5089520;28;20457;-92
2022/06/27 02:46:37;;;;;;;1.40;1.20;;;;;;;;;;5087496;28;20948;-91
2022/06/27 02:49:05;;;;;;;1.13;1.03;;;;;;;;;;5088227;28;20448;-91
2022/06/27 02:51:40;;;;;;;2.77;1.40;;;16.30;99.90;;;;;;5082713;28;20482;-93
2022/06/27 02:54:11;;;;;;;3.10;1.67;;;16.20;99.90;;;;;;5093781;28;20445;-91
2022/06/27 02:56:43;;;;;;;1.20;1.10;;;16.10;99.90;;;;;;5092813;28;20492;-93
2022/06/27 02:59:15;;;;;;;1.73;1.40;;;16.10;99.90;;;;;;5075083;28;20813;-94
2022/06/27 03:01:44;;;;;;;1.90;1.70;;;16.00;99.90;;;;;;5075179;28;20442;-91
2022/06/27 03:04:12;;;;;;;2.20;1.60;;;;;;;;;;5079802;28;20442;-92
2022/06/27 03:06:42;;;;;;;1.97;1.20;;;;;;;;;;5073667;28;20456;-91
2022/06/27 03:09:09;;;;;;;1.40;1.20;;;;;;;;;;5075888;28;20484;-91
2022/06/27 03:11:36;;;;;;;2.50;1.30;;;;;;;;;;5025319;28;20859;-92
2022/06/27 03:14:03;;;;;;;2.10;1.53;;;;;;;;;;5074675;28;20452;-92
2022/06/27 03:16:31;;;;;;;1.37;1.20;;;;;;;;;;5076371;28;20485;-93
2022/06/27 03:18:58;;;;;;;2.10;1.47;;;;;;;;;;5078538;28;20842;-91
2022/06/27 03:21:26;;;;;;;1.40;1.30;;;;;;;;;;5078884;28;20438;-93
2022/06/27 03:23:54;;;;;;;2.90;1.60;;;;;;;;;;5075242;28;20442;-92
2022/06/27 03:26:21;;;;;;;3.80;1.97;;;;;;;;;;5075747;28;20811;-92
2022/06/27 03:28:49;;;;;;;2.30;1.80;;;15.80;99.90;;;;;;5078793;28;20442;-91
2022/06/27 03:31:17;;;;;;;3.03;2.00;;;;;;;;;;5075238;28;20452;-92
2022/06/27 03:33:44;;;;;;;3.37;2.53;;;;;;;;;;5075148;28;20536;-91
2022/06/27 03:36:11;;;;;;;3.60;2.40;;;;;;;;;;5072274;28;20469;-91
2022/06/27 03:38:40;;;;;;;5.30;3.07;;;;;;;;;;5077716;28;20453;-91
2022/06/27 03:41:07;;;;;;;4.23;2.73;;;;;;;;;;5078633;28;20446;-94
2022/06/27 03:43:34;;;;;;;3.03;2.73;;;;;;;;;;5078762;28;20446;-91
2022/06/27 03:46:01;;;;;;;2.30;2.10;;;;;;;;;;5079022;28;20510;-92
2022/06/27 03:51:13;;;;;;;3.43;2.70;;;;;;;;;;5077986;28;20837;-92
2022/06/27 03:53:42;;;;;;;2.40;2.20;;;;;;;;;;5074810;28;20434;-91
2022/06/27 03:56:09;;;;;;;3.40;2.53;;;;;;;;;;5074926;28;20856;-92
2022/06/27 03:58:36;;;;;;;4.20;2.30;;;;;;;;;;5078098;28;20438;-94
2022/06/27 04:01:04;;;;;;;3.63;2.10;;;;;;;;;;5074436;28;20433;-92
2022/06/27 04:03:31;;;;;;;3.57;2.23;;;;;;;;;;5078430;28;20445;-93
2022/06/27 04:05:59;;;;;;;2.57;2.37;;;;;;;;;;5074297;28;20425;-92
2022/06/27 04:08:27;;;;;;;2.23;2.03;;;;;;;;;;5077828;28;20970;-92
2022/06/27 04:10:55;;;;;;;4.50;2.63;;;;;;;;;;5075434;28;20508;-93
2022/06/27 04:13:23;;;;;;;3.60;2.30;;;;;;;;;;5078401;28;20446;-92
2022/06/27 04:15:50;;;;;;;2.20;2.00;;;;;;;;;;5077293;28;20648;-89
2022/06/27 04:18:17;;;;;;;2.73;2.00;;;;;;;;;;5075287;28;20811;-93
2022/06/27 04:20:44;;;;;;;2.00;1.70;;;;;;;;;;5073227;28;20448;-91
2022/06/27 04:23:11;;;;;;;2.33;2.13;;;;;;;;;;5076858;28;20794;-91
2022/06/27 04:25:39;;;;;;;1.47;1.37;;;;;;;;;;5074081;28;20434;-92
2022/06/27 04:28:07;;;;;;;2.53;1.80;;;;;;;;;;5074148;28;20449;-92
2022/06/27 04:30:35;;;;;;;3.10;1.57;;;;;;;;;;5077341;28;20442;-93
2022/06/27 04:33:03;;;;;;;2.60;1.57;;;;;;;;;;5076813;28;20450;-91
2022/06/27 04:35:30;;;;;;;2.93;1.83;;;;;;;;;;5076800;28;20889;-91
2022/06/27 04:37:57;;;;;;;2.10;1.90;;;;;;;;;;5082693;28;20450;-94
2022/06/27 04:40:25;;;;;;;1.60;1.50;;;;;;;;;;5077622;28;20465;-91
2022/06/27 04:42:53;;;;;;;2.00;1.80;;;;;;;;;;5074535;28;20954;-93
2022/06/27 04:45:22;;;;;;;2.70;1.90;;;16.40;99.90;;;;;;5077715;28;20502;-91
2022/06/27 04:47:49;;;;;;;1.70;1.40;;;;;;;;;;5078617;28;20528;-92
2022/06/27 04:50:19;;;;;;;2.80;2.13;;;16.50;99.90;;;;;;5074405;28;20430;-92
2022/06/27 04:52:47;;;;;;;3.47;2.50;;;;;;;;;;5070415;28;20481;-92
2022/06/27 04:55:15;;;;;;;2.37;1.80;;;;;;;;;;5074724;28;20484;-91
2022/06/27 04:57:43;;;;;;;2.20;2.00;;;17.00;99.90;;;;;;5077864;28;20481;-91
2022/06/27 05:00:12;;;;;;;2.23;1.70;;;17.00;99.90;;;;;;5073121;28;20442;-91
2022/06/27 05:02:41;;;;;;;1.60;1.47;;;;;;;;;;5073617;28;20941;-91
2022/06/27 05:05:10;;;;;;;3.03;1.90;;;17.00;99.90;;;;;;5080001;28;20445;-91
2022/06/27 05:07:37;;;;;;;2.47;1.60;;;;;;;;;;5082648;28;20442;-90
2022/06/27 05:10:04;;;;;;;3.80;2.10;;;;;;;;;;5087495;28;20453;-91
2022/06/27 05:12:32;;;;;;;2.17;1.97;;;;;;;;;;5075335;28;20457;-91
2022/06/27 05:14:59;;;;;;;5.30;1.93;;;;;;;;;;5077291;28;20456;-92
2022/06/27 05:17:26;;;;;;;1.60;1.50;;;;;;;;;;5076518;28;20488;-91
2022/06/27 05:19:55;;;;;;;2.20;1.80;;;;;;;;;;5076230;28;20521;-92
2022/06/27 05:22:22;;;;;;;1.83;1.70;;;;;;;;;;5076271;28;20457;-92
2022/06/27 05:24:49;;;;;;;1.40;1.30;;;;;;;;;;5072806;28;20453;-91
2022/06/27 05:27:17;;;;;;;1.60;1.40;;;;;;;;;;5076099;28;20462;-92
2022/06/27 05:29:45;;;;;;;6.80;1.77;;;;;;;;;;5076719;28;20944;-92
2022/06/27 05:32:12;;;;;;;4.53;2.07;;;;;;;;;;5075904;28;20457;-92
2022/06/27 05:34:39;;;;;;;2.53;1.70;;;;;;;;;;5075854;28;20537;-92
2022/06/27 05:37:09;;;;;;;2.50;1.77;;;;;;;;;;5075798;28;20499;-90
2022/06/27 05:39:36;;;;;;;3.73;1.60;;;;;;;;;;5075475;28;20801;-92
2022/06/27 05:42:05;;;;;;;2.50;1.93;;;17.80;99.90;;;;;;5076364;28;20929;-92
2022/06/27 05:44:32;;;;;;;1.87;1.73;;;;;;;;;;5076294;28;20456;-93
2022/06/27 05:46:59;;;;;;;3.77;1.90;;;;;;;;;;5076140;28;20542;-89
2022/06/27 05:49:26;;;;;;;3.53;2.30;;;;;;;;;;5075778;28;20454;-92
2022/06/27 05:51:57;;;;;;;4.37;2.10;;;;;;;;;;5072693;28;20508;-93
2022/06/27 05:54:28;;;;;;;2.63;1.80;;;;;;;;;;5074433;28;20964;-93
2022/06/27 05:56:56;;;;;;;3.53;2.40;;;;;;;;;;5076258;28;20550;-91
2022/06/27 05:59:24;;;;;;;4.10;2.70;;;;;;;;;;5072331;28;20446;-92
2022/06/27 06:01:52;;;;;;;2.30;2.10;;;;;;;;;;5075350;28;20875;-93
2022/06/27 06:04:20;;;;;;;1.93;1.67;;;;;;;;;;5075241;28;20446;-93
2022/06/27 06:06:47;;;;;;;5.80;2.20;;;;;;;;;;5074262;28;20442;-94
2022/06/27 06:09:15;;;;;;;2.33;1.57;;;;;;;;;;5073353;28;20460;-91
2022/06/27 06:11:46;;;;;;;1.53;1.13;;;;;;;;;;5075290;28;20461;-92
2022/06/27 06:14:15;;;;;;;1.60;1.30;;;;;;;;;;5075920;28;20453;-93
2022/06/27 06:16:42;;;;;;;2.40;1.23;;;;;;;;;;5075805;28;20465;-93
2022/06/27 06:19:10;;;;;;;3.63;1.50;;;;;;;;;;5073394;28;20454;-93
2022/06/27 06:21:38;;;;;;;2.03;1.10;;;;;;;;;;5076245;28;20434;-92
2022/06/27 06:24:06;;;;;;;2.80;1.20;;;18.60;99.90;;;;;;5071641;28;20818;-93
2022/06/27 06:26:33;;;;;;;1.10;1.00;;;;;;;;;;5076245;28;20889;-95
2022/06/27 06:29:11;;;;;;;1.63;1.27;;;;;;;;;;5071576;28;20461;-89
2022/06/27 06:31:40;;;;;;;2.40;0.87;;;;;;;;;;5073246;28;20467;-92
2022/06/27 06:34:15;;;;;;;1.60;1.00;;;;;;;;;;5080291;28;20504;-94
2022/06/27 06:36:43;;;;;;;1.77;0.90;;;;;;;;;;5089789;28;20494;-94
2022/06/27 06:39:10;;;;;;;3.87;1.17;;;;;;;;;;5091427;28;20465;-93
2022/06/27 06:41:39;;;;;;;2.20;1.20;;;;;;;;;;5092602;28;20523;-95
2022/06/27 06:44:08;;;;;;;1.50;1.10;;;20.40;99.90;;;;;;5082509;28;20446;-89
2022/06/27 06:46:35;;;;;;;1.47;0.73;;;;;;;;;;5074460;28;20441;-91
2022/06/27 06:49:06;;;;;;;2.13;0.90;;;21.20;99.90;;;;;;5074712;28;20917;-92
2022/06/27 06:51:34;;;;;;;1.13;0.80;;;21.70;99.90;;;;;;5078158;28;20474;-95
2022/06/27 06:54:01;;;;;;;1.43;1.00;;;22.00;99.90;;;;;;5072137;28;20476;-93
2022/06/27 06:56:30;;;;;;;0.97;0.77;;;;;;;;;;5071501;28;20470;-92
2022/06/27 06:58:57;;;;;;;1.10;0.80;;;;;;;;;;5071065;28;20940;-95
2022/06/27 07:01:25;;;;;;;1.13;0.90;;;22.10;99.90;;;;;;5084259;28;20433;-92
2022/06/27 07:03:53;;;;;;;2.37;0.70;;;;;;;;;;5094769;28;20823;-95
2022/06/27 07:06:24;;;;;;;0.90;0.70;;;;;;;;;;5095077;28;20455;-93
2022/06/27 07:08:53;;;;;;;1.93;0.83;;;21.20;99.90;;;;;;5090746;28;21006;-92
2022/06/27 07:11:21;;;;;;;1.53;0.77;;;;;;;;;;5090159;28;20437;-92
2022/06/27 07:13:48;;;;;;;1.10;0.80;;;;;;;;;;5078001;28;20453;-92
2022/06/27 07:16:15;;;;;;;1.10;0.87;;;;;;;;;;5074041;28;20434;-91
2022/06/27 07:18:44;;;;;;;1.63;0.80;;;;;;;;;;5074010;28;20453;-92
2022/06/27 07:21:13;;;;;;;1.90;0.97;;;;;;;;;;5070963;28;20493;-94
2022/06/27 07:23:40;;;;;;;2.70;0.73;;;;;;;;;;5073377;28;20453;-93
2022/06/27 07:26:08;;;;;;;5.00;0.70;;;;;;;;;;5071192;28;20442;-93
2022/06/27 07:28:35;;;;;;;1.73;1.30;;;;;;;;;;5074335;28;20508;-93
2022/06/27 07:31:08;;;;;;;1.30;1.13;;;;;;;;;;5074555;28;20426;-92
2022/06/27 07:33:36;;;;;;;3.13;0.80;;;;;;;;;;5074651;28;20495;-90
2022/06/27 07:36:06;;;;;;;3.13;1.00;;;22.40;99.90;;;;;;5073986;28;20532;-92
2022/06/27 07:38:38;;;;;;;1.30;0.87;;;;;;;;;;5072009;28;20493;-87
2022/06/27 07:41:05;;;;;;;2.20;0.80;;;;;;;;;;5069998;28;20925;-90
2022/06/27 07:43:32;;;;;;;1.00;0.80;;;;;;;;;;5073126;28;20820;-90
2022/06/27 07:46:00;;;;;;;2.30;0.83;;;;;;;;;;5073209;28;20446;-92
2022/06/27 07:48:27;;;;;;;1.73;0.70;;;;;;;;;;5073431;28;20461;-89
2022/06/27 07:50:55;;;;;;;1.00;0.87;;;;;;;;;;5073076;28;20445;-90
2022/06/27 07:53:26;;;;;;;1.90;0.87;;;21.20;99.90;;;;;;5071999;28;20501;-90
2022/06/27 07:55:54;;;;;;;2.07;1.30;;;21.10;99.90;;;;;;5075184;28;20473;-90
2022/06/27 07:58:26;;;;;;;2.30;1.10;;;20.90;99.90;;;;;;5076833;28;20564;-90
2022/06/27 08:00:53;;;;;;;0.77;0.77;;;;;;;;;;5076502;28;20453;-89
2022/06/27 08:06:08;;;;;;;1.00;0.90;;;21.60;99.90;;;;;;5076554;28;20476;-90
2022/06/27 08:08:39;;;;;;;1.60;0.93;;;21.90;99.90;;;;;;5075601;28;20870;-90
2022/06/27 08:11:07;;;;;;;2.10;1.10;;;22.10;99.90;;;;;;5076280;28;20457;-91
2022/06/27 08:13:36;;;;;;;2.47;1.00;;;;;;;;;;5076341;28;20952;-89
2022/06/27 08:16:04;;;;;;;1.00;0.90;;;;;;;;;;5076103;28;20457;-89
2022/06/27 08:18:31;;;;;;;1.30;1.00;;;;;;;;;;5072858;28;20834;-89
2022/06/27 08:20:59;;;;;;;1.97;1.00;;;;;;;;;;5075990;28;20438;-88
2022/06/27 08:23:26;;;;;;;1.23;1.10;;;;;;;;;;5075055;28;20446;-90
2022/06/27 08:25:55;;;;;;;1.07;0.87;;;21.90;99.90;;;;;;5076874;28;20442;-88
2022/06/27 08:28:25;;;;;;;2.53;0.93;;;;;;;;;;5076401;28;20454;-88
2022/06/27 08:30:52;;;;;;;2.90;1.40;;;;;;;;;;5075951;28;20524;-88
2022/06/27 08:33:19;;;;;;;1.40;1.00;;;;;;;;;;5075699;28;20445;-88
2022/06/27 08:35:48;;;;;;;0.83;0.80;;;;;;;;;;5075828;28;20456;-87
2022/06/27 08:38:17;;;;;;;1.23;1.03;;;;;;;;;;5074266;28;20921;-87
2022/06/27 08:40:44;;;;;;;1.30;0.90;;;;;;;;;;5072399;28;20970;-88
2022/06/27 08:43:12;;;;;;;1.17;0.90;;;24.50;99.90;;;;;;5075303;28;20457;-87
2022/06/27 08:45:39;;;;;;;2.00;0.80;;;;;;;;;;5076152;28;20488;-90
2022/06/27 08:48:08;;;;;;;1.23;0.70;;;;;;;;;;5075704;28;20456;-87
2022/06/27 08:50:36;;;;;;;3.60;0.93;;;23.20;99.90;;;;;;5075130;28;20860;-88
2022/06/27 08:53:03;;;;;;;0.83;0.83;;;;;;;;;;5073770;28;20492;-88
2022/06/27 08:55:33;;;;;;;1.23;0.80;;;22.50;99.90;;;;;;5075259;28;20964;-87
2022/06/27 08:58:04;;;;;;;3.53;1.30;;;22.40;99.90;;;;;;5075319;28;21007;-87
2022/06/27 09:00:34;;;;;;;1.00;0.87;;;22.30;99.90;;;;;;5075292;28;20453;-87
2022/06/27 09:03:01;;;;;;;2.50;1.23;;;;;;;;;;5074378;28;20444;-87
2022/06/27 09:05:30;;;;;;;1.27;1.07;;;21.70;99.90;;;;;;5074974;28;20453;-87
2022/06/27 09:08:01;;;;;;;1.43;1.07;;;21.40;99.90;;;;;;5073023;28;20989;-86
2022/06/27 09:10:32;;;;;;;3.90;1.00;;;21.30;99.90;;;;;;5075025;28;21005;-87
2022/06/27 09:13:01;;;;;;;2.53;1.10;;;21.10;99.90;;;;;;5083139;28;20456;-88
2022/06/27 09:15:30;;;;;;;1.07;0.90;;;20.90;99.90;;;;;;5092716;28;20792;-88
2022/06/27 09:18:06;;;;;;;5.70;0.90;;;20.70;99.90;;;;;;5095039;28;20520;-86
2022/06/27 09:20:47;;;;;;;1.70;0.80;;;20.80;99.90;;;;;;5080522;28;20480;-86
2022/06/27 09:23:43;;;;;;;1.43;1.20;;;20.90;99.90;;;;;;5073310;28;20445;-87
2022/06/27 09:26:15;;;;;;;1.60;1.47;;;20.90;99.90;;;;;;5071538;28;20815;-86
2022/06/27 09:28:50;;;;;;;1.30;1.20;;;21.10;99.90;;;;;;5074585;28;20453;-87
2022/06/27 09:31:35;;;;;;;1.90;1.13;;;21.00;99.90;;;;;;5071543;28;20455;-87
2022/06/27 09:34:08;;;;;;;1.20;1.10;;;20.90;99.90;;;;;;5074174;28;20537;-87
2022/06/27 09:36:39;;;;;;;1.93;1.13;;;21.00;99.90;;;;;;5074606;28;20477;-87
2022/06/27 09:39:11;;;;;;;1.33;0.90;;;21.30;99.90;;;;;;5072548;28;20507;-87
2022/06/27 09:41:41;;;;;;;3.20;1.20;;;21.60;99.90;;;;;;5074287;28;20563;-87
2022/06/27 09:44:11;;;;;;;2.73;1.00;;;;;;;;;;5074205;28;20449;-88
2022/06/27 09:46:42;;;;;;;2.27;0.87;;;22.20;99.90;;;;;;5074073;28;20943;-86
2022/06/27 09:49:17;;;;;;;1.00;0.90;;;22.20;99.90;;;;;;5073896;28;20549;-86
2022/06/27 09:51:44;;;;;;;1.70;0.80;;;;;;;;;;5073803;28;20512;-87
2022/06/27 09:54:22;;;;;;;1.00;0.90;;;;;;;;;;5072674;28;20450;-86
2022/06/27 09:56:50;;;;;;;1.17;1.07;;;;;;;;;;5074176;28;20492;-87
2022/06/27 09:59:18;;;;;;;1.33;1.23;;;;;;;;;;5074634;28;20493;-88
2022/06/27 10:01:46;;;;;;;1.30;1.00;;;;;;;;;;5074485;28;20457;-86
2022/06/27 10:04:14;;;;;;;1.53;0.93;;;21.90;99.90;;;;;;5073914;28;20445;-86
2022/06/27 10:06:43;;;;;;;3.07;1.40;;;21.70;99.90;;;;;;5073723;28;20456;-87
2022/06/27 10:09:16;;;;;;;1.97;1.10;;;21.50;99.90;;;;;;5072454;28;20503;-87
2022/06/27 10:11:43;;;;;;;2.10;1.17;;;;;;;;;;5073133;28;20458;-86
2022/06/27 10:14:16;;;;;;;2.40;1.30;;;21.20;99.90;;;;;;5073738;28;20456;-86
2022/06/27 10:16:57;;;;;;;3.70;1.30;;;21.10;99.90;;;;;;5073800;28;20454;-86
2022/06/27 10:19:26;;;;;;;0.80;0.80;;;21.00;99.90;;;;;;5072680;28;20506;-86
2022/06/27 10:21:53;;;;;;;1.20;1.10;;;;;;;;;;5073652;28;20446;-85
2022/06/27 10:24:33;;;;;;;1.30;1.20;;;20.50;99.90;;;;;;5072390;28;20453;-86
2022/06/27 10:27:03;;;;;;;1.40;1.23;;;20.40;99.90;;;;;;5073564;28;20449;-86
2022/06/27 10:29:37;;;;;;;6.23;1.60;;;20.50;99.90;;;;;;5073557;28;20449;-86
2022/06/27 10:32:05;;;;;;;1.43;1.23;;;20.40;99.90;;;;;;5074098;28;20456;-86
2022/06/27 10:35:09;;;;;;;2.50;1.50;;;20.30;99.90;;;;;;5074870;28;20449;-86
2022/06/27 10:37:38;;;;;;;2.10;1.53;;;20.20;99.90;;;;;;5074994;28;20481;-86
2022/06/27 10:40:51;;;;;;;1.97;1.87;;;20.10;99.90;;;;;;5074273;28;20445;-85
2022/06/27 10:43:41;;;;;;;2.20;2.00;;;20.10;99.90;;;;;;5075509;28;20445;-85
2022/06/27 10:46:43;;;;;;;2.30;2.10;;;20.10;99.90;;;;;;5078302;28;20450;-85
2022/06/27 10:49:24;;;;;;;2.70;1.90;;;20.10;99.90;;;;;;5096080;28;20456;-86
2022/06/27 10:51:53;;;;;;;3.43;2.23;;;20.10;99.90;;;;;;5079069;28;20556;-85
2022/06/27 10:54:20;;;;;;;2.20;1.83;;;;;;;;;;5074862;28;20449;-85
2022/06/27 10:56:49;;;;;;;2.20;2.07;;;20.30;99.90;;;;;;5088796;28;20449;-86
2022/06/27 10:59:59;;;;;;;2.10;1.90;;;20.40;99.90;;;;;;5096285;28;20534;-87
2022/06/27 11:02:31;;;;;;;2.80;1.80;;;;;;;;;;5057420;28;20446;-86
2022/06/27 11:04:59;;;;;;;3.77;2.20;;;;;;;;;;5096386;28;20449;-87
2022/06/27 11:07:27;;;;;;;2.50;2.30;;;21.10;99.90;;;;;;5098831;28;20453;-87
2022/06/27 11:09:55;;;;;;;2.20;1.93;;;;;;;;;;5093415;28;20943;-86
2022/06/27 11:12:30;;;;;;;2.60;2.40;;;21.40;99.90;;;;;;5095144;28;20441;-87
2022/06/27 11:14:59;;;;;;;2.37;2.23;;;21.40;99.90;;;;;;5056006;28;20446;-88
2022/06/27 11:17:38;;;;;;;2.20;2.10;;;21.30;99.90;;;;;;5056589;28;20447;-86
2022/06/27 11:20:17;;;;;;;2.23;2.03;;;21.10;99.90;;;;;;5059280;28;20861;-86
2022/06/27 11:22:47;;;;;;;1.90;1.80;;;20.90;99.90;;;;;;5054655;28;20929;-86
2022/06/27 11:25:14;;;;;;;2.77;2.57;;;;;;;;;;5054358;28;20454;-88
2022/06/27 11:27:45;;;;;;;2.40;1.53;;;20.90;99.90;;;;;;5055512;28;20442;-89
2022/06/27 11:33:16;;;;;;;1.80;1.70;;;21.10;99.90;;;;;;5058621;28;20457;-87
2022/06/27 11:35:43;;;;;;;3.20;2.60;;;;;;;;;;5058699;28;20500;-87
2022/06/27 11:38:12;;;;;;;1.97;1.87;;;21.20;99.90;;;;;;5057531;28;20981;-86
2022/06/27 11:40:39;;;;;;;2.23;1.83;;;;;;;;;;5082833;28;20449;-85
2022/06/27 11:43:08;;;;;;;2.33;2.13;;;;;;;;;;5083254;28;20505;-87
2022/06/27 11:45:42;;;;;;;2.53;1.90;;;20.80;99.90;;;;;;5083326;28;20446;-87
2022/06/27 11:48:14;;;;;;;4.10;1.60;;;20.70;99.90;;;;;;5085188;28;20959;-84
2022/06/27 11:50:42;;;;;;;2.53;1.67;;;;;;;;;;5082820;28;20449;-86
2022/06/27 11:53:09;;;;;;;1.53;1.40;;;;;;;;;;5078623;28;20482;-86
2022/06/27 11:55:38;;;;;;;1.90;1.70;;;20.60;99.90;;;;;;5082580;28;20503;-86
2022/06/27 11:58:05;;;;;;;3.40;1.47;;;;;;;;;;5077552;28;20983;-87
2022/06/27 12:00:35;;;;;;;2.00;1.60;;;20.60;99.90;;;;;;5077731;28;20804;-87
2022/06/27 12:03:05;;;;;;;4.07;1.70;;;20.60;99.90;;;;;;5078246;28;20460;-87
2022/06/27 12:05:32;;;;;;;1.53;1.43;;;;;;;;;;5077960;28;20935;-87
2022/06/27 12:08:01;;;;;;;1.93;1.83;;;20.70;99.90;;;;;;5077813;28;20446;-86
2022/06/27 12:11:16;;;;;;;2.23;1.83;;;20.60;99.90;;;;;;5078471;28;20452;-87
2022/06/27 12:13:36;;;;;;;2.77;2.00;;;20.70;99.90;;;;;;5077669;28;20457;-86
2022/06/27 12:16:06;;;;;;;1.93;1.83;;;20.60;99.90;;;;;;5074767;28;20456;-86
2022/06/27 12:18:34;;;;;;;3.53;2.23;;;20.50;99.90;;;;;;5075548;28;20485;-88
2022/06/27 12:21:01;;;;;;;2.60;2.17;;;;;;;;;;5074652;28;20452;-87
2022/06/27 12:23:28;;;;;;;2.20;2.10;;;;;;;;;;5077211;28;20539;-88
2022/06/27 12:25:56;;;;;;;2.57;2.20;;;20.00;99.90;;;;;;5077661;28;20451;-86
2022/06/27 12:28:23;;;;;;;2.40;2.20;;;;;;;;;;5081515;28;20437;-85
2022/06/27 12:30:51;;;;;;;2.23;2.10;;;;;;;;;;5081295;28;20446;-88
2022/06/27 12:33:19;;;;;;;2.37;2.20;;;;;;;;;;5084290;28;20458;-88
2022/06/27 12:35:46;;;;;;;2.30;2.10;;;;;;;;;;5086343;28;20503;-87
2022/06/27 12:38:13;;;;;;;5.10;2.17;;;;;;;;;;5075706;28;20493;-85
2022/06/27 12:40:40;;;;;;;1.70;1.60;;;;;;;;;;5077080;28;20941;-86
2022/06/27 12:43:09;;;;;;;4.43;1.90;;;19.90;99.90;;;;;;5076573;28;20458;-86
2022/06/27 12:45:37;;;;;;;2.30;2.10;;;19.90;99.90;;;;;;5076585;28;20456;-86
2022/06/27 12:48:06;;;;;;;2.20;2.00;;;19.80;99.90;;;;;;5073352;28;20468;-85
2022/06/27 12:50:33;;;;;;;3.20;2.10;;;;;;;;;;5074019;28;20961;-87
2022/06/27 12:53:00;;;;;;;2.77;2.57;;;;;;;;;;5075221;28;21008;-85
2022/06/27 12:55:27;;;;;;;3.17;2.23;;;;;;;;;;5076044;28;20450;-88
2022/06/27 12:57:55;;;;;;;3.03;1.80;;;;;;;;;;5073855;28;20446;-87
2022/06/27 13:00:23;;;;;;;3.07;2.20;;;;;;;;;;5076415;28;20450;-88
2022/06/27 13:02:51;;;;;;;1.73;1.63;;;;;;;;;;5076435;28;20444;-87
2022/06/27 13:05:18;;;;;;;2.60;2.40;;;;;;;;;;5072819;28;20448;-87
2022/06/27 13:07:45;;;;;;;2.70;1.97;;;;;;;;;;5079474;28;20453;-85
2022/06/27 13:10:12;;;;;;;1.90;1.80;;;;;;;;;;5077071;28;20445;-88
2022/06/27 13:12:41;;;;;;;2.70;2.50;;;;;;;;;;5075843;28;20496;-88
2022/06/27 13:15:09;;;;;;;2.47;1.90;;;19.90;99.90;;;;;;5075790;28;20457;-88
2022/06/27 13:17:37;;;;;;;3.63;2.03;;;19.90;99.90;;;;;;5077472;28;20446;-88
2022/06/27 13:20:09;;;;;;;2.40;2.20;;;;;;;;;;5074243;28;20881;-88
2022/06/27 13:22:36;;;;;;;2.50;2.30;;;;;;;;;;5094733;28;20432;-85
2022/06/27 13:25:04;;;;;;;2.33;2.13;;;;;;;;;;5092460;28;20597;-85
2022/06/27 13:27:31;;;;;;;2.23;2.03;;;;;;;;;;5075571;28;20450;-85
2022/06/27 13:29:58;;;;;;;2.37;2.17;;;;;;;;;;5075497;28;20449;-84
2022/06/27 13:32:27;;;;;;;1.93;1.83;;;;;;;;;;5075358;28;20449;-85
2022/06/27 13:34:55;;;;;;;3.17;2.17;;;20.00;99.90;;;;;;5076674;28;20449;-85
2022/06/27 13:37:22;;;;;;;2.63;2.43;;;;;;;;;;5075676;28;20462;-84
2022/06/27 13:39:49;;;;;;;2.83;2.10;;;;;;;;;;5074281;28;20501;-84
2022/06/27 13:42:16;;;;;;;1.87;1.77;;;;;;;;;;5080790;28;20461;-86
2022/06/27 13:44:43;;;;;;;2.10;1.63;;;;;;;;;;5074941;28;20446;-84
2022/06/27 13:47:10;;;;;;;2.10;1.90;;;;;;;;;;5075618;28;20437;-84
2022/06/27 13:49:37;;;;;;;2.20;1.70;;;;;;;;;;5075068;28;20445;-85
2022/06/27 13:52:06;;;;;;;2.17;1.97;;;21.40;99.90;;;;;;5074551;28;20469;-85
2022/06/27 13:54:33;;;;;;;2.00;1.90;;;;;;;;;;5073671;28;20861;-85
2022/06/27 13:57:01;;;;;;;2.70;1.90;;;;;;;;;;5074659;28;20438;-85
2022/06/27 13:59:28;;;;;;;2.17;1.97;;;;;;;;;;5070713;28;20485;-85
2022/06/27 14:01:55;;;;;;;1.90;1.80;;;;;;;;;;5074731;28;20937;-84
2022/06/27 14:04:22;;;;;;;2.00;1.90;;;;;;;;;;5072528;28;20453;-84
2022/06/27 14:09:35;;;;;;;2.07;1.67;;;21.00;99.90;;;;;;5076965;28;20456;-85
2022/06/27 14:12:02;;;;;;;2.87;1.60;;;;;;;;;;5075887;28;20475;-84
2022/06/27 14:14:29;;;;;;;1.73;1.50;;;;;;;;;;5074832;28;20499;-84
2022/06/27 14:16:56;;;;;;;4.03;1.80;;;;;;;;;;5074701;28;20810;-85
2022/06/27 14:19:24;;;;;;;3.20;2.23;;;;;;;;;;5059634;28;20486;-84
2022/06/27 14:21:51;;;;;;;1.90;1.80;;;;;;;;;;5054469;28;20443;-84